createdAt,value
2022-08-28T00:02:43.268Z,13.32
2022-08-28T00:07:47.953Z,13.63
2022-08-28T00:12:52.620Z,14.13
2022-08-28T00:17:56.009Z,13.77
2022-08-28T00:22:59.152Z,14.13
2022-08-28T00:28:08.866Z,14.93
2022-08-28T00:33:16.950Z,14.68
2022-08-28T00:38:22.606Z,14.70
2022-08-28T00:44:06.267Z,14.65
2022-08-28T00:49:09.524Z,16.33
2022-08-28T00:54:12.320Z,16.33
2022-08-28T00:59:18.476Z,16.10
2022-08-28T01:04:22.616Z,16.52
2022-08-28T01:09:28.877Z,16.60
2022-08-28T01:14:34.638Z,17.02
2022-08-28T01:19:41.814Z,16.20
2022-08-28T01:24:46.507Z,17.88
2022-08-28T01:29:49.758Z,17.38
2022-08-28T01:34:52.462Z,17.37
2022-08-28T01:39:55.790Z,16.23
2022-08-28T01:44:59.151Z,16.58
2022-08-28T01:50:01.982Z,16.00
2022-08-28T01:55:07.269Z,16.13
2022-08-28T02:00:11.777Z,16.63
2022-08-28T02:05:14.830Z,18.15
2022-08-28T02:10:17.879Z,19.35
2022-08-28T02:15:23.653Z,21.37
2022-08-28T02:20:27.351Z,22.02
2022-08-28T02:25:30.470Z,21.73
2022-08-28T02:30:33.747Z,20.30
2022-08-28T02:35:37.011Z,21.00
2022-08-28T02:40:39.873Z,21.05
2022-08-28T02:45:42.873Z,21.42
2022-08-28T02:50:47.363Z,21.60
2022-08-28T02:55:51.230Z,21.55
2022-08-28T03:00:55.675Z,20.17
2022-08-28T03:06:00.706Z,20.35
2022-08-28T03:11:03.416Z,20.67
2022-08-28T03:16:06.225Z,21.48
2022-08-28T03:21:09.396Z,21.30
2022-08-28T03:26:20.007Z,25.13
2022-08-28T03:31:26.081Z,22.60
2022-08-28T03:36:31.254Z,22.95
2022-08-28T03:41:35.441Z,23.35
2022-08-28T03:56:45.933Z,28.75
2022-08-28T04:01:48.648Z,28.20
2022-08-28T04:06:51.335Z,28.02
2022-08-28T04:11:55.071Z,26.92
2022-08-28T04:17:01.378Z,29.53
2022-08-28T04:22:04.549Z,28.73
2022-08-28T04:27:07.185Z,26.67
2022-08-28T04:32:09.921Z,27.77
2022-08-28T04:37:13.183Z,26.45
2022-08-28T04:42:15.980Z,28.15
2022-08-28T04:47:18.798Z,26.30
2022-08-28T04:52:21.851Z,25.30
2022-08-28T04:57:24.933Z,25.67
2022-08-28T05:02:28.095Z,24.33
2022-08-28T05:07:31.361Z,22.98
2022-08-28T05:12:37.353Z,24.33
2022-08-28T05:17:40.390Z,25.83
2022-08-28T05:22:43.412Z,23.58
2022-08-28T05:27:46.968Z,24.05
2022-08-28T05:32:50.053Z,22.52
2022-08-28T05:37:53.769Z,21.75
2022-08-28T05:42:57.029Z,21.50
2022-08-28T05:48:00.062Z,20.57
2022-08-28T05:53:03.173Z,23.67
2022-08-28T05:58:25.828Z,22.55
2022-08-28T06:03:28.876Z,22.33
2022-08-28T06:08:32.604Z,22.85
2022-08-28T06:13:36.413Z,22.50
2022-08-28T06:23:42.270Z,24.42
2022-08-28T06:28:45.192Z,24.45
2022-08-28T06:33:48.017Z,24.75
2022-08-28T06:38:51.418Z,22.65
2022-08-28T06:43:55.101Z,24.03
2022-08-28T06:48:57.962Z,22.02
2022-08-28T06:54:01.101Z,24.33
2022-08-28T06:59:06.099Z,24.27
2022-08-28T07:04:12.346Z,22.25
2022-08-28T07:09:15.449Z,24.88
2022-08-28T07:14:19.122Z,26.75
2022-08-28T07:19:22.111Z,25.73
2022-08-28T07:24:24.915Z,23.67
2022-08-28T07:29:27.584Z,22.80
2022-08-28T07:34:30.674Z,24.00
2022-08-28T07:39:33.862Z,22.43
2022-08-28T07:44:52.175Z,22.38
2022-08-28T07:49:55.754Z,22.65
2022-08-28T07:54:58.676Z,17.80
2022-08-28T08:00:01.617Z,16.30
2022-08-28T08:05:04.601Z,14.77
2022-08-28T08:10:10.215Z,13.90
2022-08-28T08:15:14.363Z,12.15
2022-08-28T08:20:17.198Z,10.82
2022-08-28T08:25:20.141Z,10.20
2022-08-28T08:30:22.871Z,11.93
2022-08-28T08:35:25.649Z,10.43
2022-08-28T08:40:28.580Z,10.23
2022-08-28T08:45:32.814Z,9.07
2022-08-28T08:50:36.644Z,8.75
2022-08-28T08:55:55.155Z,8.82
2022-08-28T09:01:24.373Z,8.02
2022-08-28T09:06:51.289Z,7.93
2022-08-28T09:31:42.303Z,3.90
2022-08-28T09:36:46.681Z,4.57
2022-08-28T09:42:41.132Z,4.00
2022-08-28T09:47:49.678Z,5.43
2022-08-28T09:52:56.219Z,3.80
2022-08-28T09:57:59.525Z,3.53
2022-08-28T10:03:19.110Z,4.10
2022-08-28T10:08:33.808Z,4.30
2022-08-28T10:24:47.128Z,3.60
2022-08-28T10:44:41.259Z,3.10
2022-08-28T11:11:07.331Z,2.22
2022-08-28T11:21:29.200Z,3.20
2022-08-28T11:27:02.206Z,3.22
2022-08-28T11:32:31.623Z,2.95
2022-08-28T11:53:58.800Z,2.88
2022-08-28T11:59:17.549Z,3.40
2022-08-28T12:04:25.201Z,3.35
2022-08-28T12:09:50.717Z,2.92
2022-08-28T12:20:24.849Z,2.70
2022-08-28T12:31:06.232Z,2.95
2022-08-28T12:36:17.232Z,2.78
2022-08-28T12:41:22.363Z,2.90
2022-08-28T12:46:30.888Z,2.80
2022-08-28T12:51:37.232Z,2.78
2022-08-28T12:56:40.422Z,2.50
2022-08-28T13:01:45.352Z,2.70
2022-08-28T13:06:50.311Z,2.92
2022-08-28T13:11:54.332Z,2.45
2022-08-28T13:16:57.764Z,2.70
2022-08-28T13:22:04.750Z,2.88
2022-08-28T13:37:48.043Z,2.60
2022-08-28T13:42:54.638Z,2.40
2022-08-28T13:47:57.946Z,2.65
2022-08-28T13:53:01.301Z,2.50
2022-08-28T13:58:08.377Z,2.55
2022-08-28T14:03:31.401Z,2.47
2022-08-28T14:08:34.610Z,2.77
2022-08-28T14:23:46.262Z,2.70
2022-08-28T14:28:49.977Z,4.55
2022-08-28T14:33:52.943Z,3.85
2022-08-28T14:38:57.833Z,5.18
2022-08-28T14:44:01.282Z,4.82
2022-08-28T14:49:09.862Z,4.57
2022-08-28T14:54:15.156Z,4.38
2022-08-28T15:04:35.482Z,4.13
2022-08-28T15:14:55.183Z,3.50
2022-08-28T15:20:01.379Z,3.67
2022-08-28T15:25:06.690Z,3.83
2022-08-28T15:30:10.772Z,3.78
2022-08-28T15:35:16.407Z,3.90
2022-08-28T15:40:40.380Z,3.88
2022-08-28T15:45:44.246Z,3.90
2022-08-28T15:56:05.917Z,3.38
2022-08-28T16:01:15.994Z,3.78
2022-08-28T16:06:21.321Z,3.35
2022-08-28T16:11:24.723Z,3.50
2022-08-28T16:16:28.432Z,3.20
2022-08-28T16:21:32.627Z,3.55
2022-08-28T16:26:35.841Z,3.30
2022-08-28T16:31:39.467Z,3.40
2022-08-28T16:36:43.430Z,3.53
2022-08-28T16:46:55.006Z,3.42
2022-08-28T16:51:58.426Z,3.38
2022-08-28T17:02:06.665Z,3.50
2022-08-28T17:12:16.211Z,3.35
2022-08-28T17:17:19.549Z,3.50
2022-08-28T17:22:32.803Z,3.67
2022-08-28T17:27:37.485Z,3.60
2022-08-28T17:32:41.593Z,4.13
2022-08-28T17:37:45.769Z,4.28
2022-08-28T17:42:49.722Z,3.67
2022-08-28T17:47:53.795Z,3.72
2022-08-28T17:52:57.210Z,3.75
2022-08-28T18:03:04.507Z,6.47
2022-08-28T18:08:09.018Z,4.43
2022-08-28T18:23:26.592Z,4.22
2022-08-28T18:28:29.804Z,4.63
2022-08-28T18:33:33.556Z,5.00
2022-08-28T18:38:37.785Z,5.13
2022-08-28T18:43:42.804Z,5.25
2022-08-28T18:48:46.309Z,5.30
2022-08-28T18:53:49.888Z,5.03
2022-08-28T18:58:54.465Z,5.05
2022-08-28T19:03:57.591Z,5.32
2022-08-28T19:09:01.164Z,5.20
2022-08-28T19:14:04.594Z,5.25
2022-08-28T19:19:08.276Z,5.90
2022-08-28T19:24:12.723Z,5.25
2022-08-28T19:29:17.184Z,5.32
2022-08-28T19:34:20.461Z,6.00
2022-08-28T19:39:23.797Z,5.72
2022-08-28T19:44:26.901Z,6.22
2022-08-28T19:49:30.490Z,6.27
2022-08-28T19:54:40.558Z,5.53
2022-08-28T19:59:43.724Z,6.28
2022-08-28T20:04:48.077Z,6.00
2022-08-28T20:09:53.080Z,6.00
2022-08-28T20:15:01.293Z,6.45
2022-08-28T20:20:11.389Z,6.45
2022-08-28T20:25:16.453Z,6.47
2022-08-28T20:30:19.610Z,6.40
2022-08-28T20:35:24.599Z,6.30
2022-08-28T20:40:31.331Z,6.65
2022-08-28T20:45:34.573Z,6.03
2022-08-28T20:50:37.767Z,5.80
2022-08-28T20:55:40.934Z,5.90
2022-08-28T21:00:45.554Z,6.00
2022-08-28T21:05:49.474Z,5.65
2022-08-28T21:10:53.385Z,6.95
2022-08-28T21:15:56.503Z,8.10
2022-08-28T21:20:59.855Z,7.57
2022-08-28T21:26:07.189Z,6.97
2022-08-28T21:31:12.510Z,7.07
2022-08-28T21:36:18.406Z,8.00
2022-08-28T21:41:21.597Z,7.05
2022-08-28T21:46:25.381Z,7.63
2022-08-28T21:51:28.630Z,7.25
2022-08-28T21:56:33.218Z,7.30
2022-08-28T22:01:37.328Z,6.10
2022-08-28T22:06:41.365Z,7.90
2022-08-28T22:16:48.223Z,7.82
2022-08-28T22:22:10.216Z,7.00
2022-08-28T22:27:14.657Z,7.63
2022-08-28T22:32:26.188Z,6.93
2022-08-28T22:37:29.340Z,6.95
2022-08-28T22:42:32.789Z,7.10
2022-08-28T22:47:37.093Z,7.10
2022-08-28T22:52:40.665Z,7.30
2022-08-28T22:57:44.489Z,7.13
2022-08-28T23:02:48.658Z,7.32
2022-08-28T23:07:52.204Z,7.10
2022-08-28T23:12:55.419Z,7.43
2022-08-28T23:17:58.515Z,7.57
2022-08-28T23:23:01.720Z,7.65
2022-08-28T23:28:14.564Z,7.10
2022-08-28T23:33:23.785Z,8.52
2022-08-28T23:38:27.358Z,9.02
2022-08-28T23:43:31.874Z,7.93
2022-08-28T23:53:39.588Z,6.55
2022-08-28T23:58:43.419Z,6.55
